sensor_id;sensor_type;location;lat;lon;timestamp;temperature;humidity
56123;DHT22;42426;46.104;19.656;2023-02-15T00:00:17;52.00;2227.20
56123;DHT22;42426;46.104;19.656;2023-02-15T00:02:42;52.00;2227.20
56123;DHT22;42426;46.104;19.656;2023-02-15T00:05:09;52.00;2227.20
56123;DHT22;42426;46.104;19.656;2023-02-15T00:07:34;52.00;2227.20
56123;DHT22;42426;46.104;19.656;2023-02-15T00:10:01;52.00;2227.20
56123;DHT22;42426;46.104;19.656;2023-02-15T00:12:27;52.10;2227.20
56123;DHT22;42426;46.104;19.656;2023-02-15T00:14:52;52.10;2227.20
56123;DHT22;42426;46.104;19.656;2023-02-15T00:17:18;52.10;2227.20
56123;DHT22;42426;46.104;19.656;2023-02-15T00:19:44;52.00;2227.20
56123;DHT22;42426;46.104;19.656;2023-02-15T00:22:09;52.10;2227.20
56123;DHT22;42426;46.104;19.656;2023-02-15T00:24:35;52.00;2227.20
56123;DHT22;42426;46.104;19.656;2023-02-15T00:27:01;52.00;2227.20
56123;DHT22;42426;46.104;19.656;2023-02-15T00:29:26;52.00;2227.20
56123;DHT22;42426;46.104;19.656;2023-02-15T00:31:53;52.00;2227.20
56123;DHT22;42426;46.104;19.656;2023-02-15T00:34:22;52.00;2227.20
56123;DHT22;42426;46.104;19.656;2023-02-15T00:36:48;51.90;2227.20
56123;DHT22;42426;46.104;19.656;2023-02-15T00:39:16;51.90;2227.20
56123;DHT22;42426;46.104;19.656;2023-02-15T00:41:42;51.90;2227.20
56123;DHT22;42426;46.104;19.656;2023-02-15T00:44:08;52.00;2227.20
56123;DHT22;42426;46.104;19.656;2023-02-15T00:46:34;51.90;2227.20
56123;DHT22;42426;46.104;19.656;2023-02-15T00:49:00;51.90;2227.20
56123;DHT22;42426;46.104;19.656;2023-02-15T00:51:26;52.00;2227.20
56123;DHT22;42426;46.104;19.656;2023-02-15T00:53:52;51.90;2227.20
56123;DHT22;42426;46.104;19.656;2023-02-15T00:56:19;51.90;2227.20
56123;DHT22;42426;46.104;19.656;2023-02-15T00:58:44;51.90;2227.20
56123;DHT22;42426;46.104;19.656;2023-02-15T01:01:13;51.90;2227.20
56123;DHT22;42426;46.104;19.656;2023-02-15T01:03:40;51.90;2227.20
56123;DHT22;42426;46.104;19.656;2023-02-15T01:06:10;51.90;2227.20
56123;DHT22;42426;46.104;19.656;2023-02-15T01:08:36;51.80;2227.20
56123;DHT22;42426;46.104;19.656;2023-02-15T01:11:07;51.80;2227.20
56123;DHT22;42426;46.104;19.656;2023-02-15T01:13:33;51.80;2227.20
56123;DHT22;42426;46.104;19.656;2023-02-15T01:15:59;51.80;2227.20
56123;DHT22;42426;46.104;19.656;2023-02-15T01:18:25;51.80;2227.20
56123;DHT22;42426;46.104;19.656;2023-02-15T01:20:52;51.70;2227.20
56123;DHT22;42426;46.104;19.656;2023-02-15T01:23:17;51.70;2227.20
56123;DHT22;42426;46.104;19.656;2023-02-15T01:25:43;51.70;2227.20
56123;DHT22;42426;46.104;19.656;2023-02-15T01:28:09;51.70;2227.20
56123;DHT22;42426;46.104;19.656;2023-02-15T01:30:35;51.70;2227.20
56123;DHT22;42426;46.104;19.656;2023-02-15T01:33:01;51.70;2227.20
56123;DHT22;42426;46.104;19.656;2023-02-15T01:35:28;51.70;2227.20
56123;DHT22;42426;46.104;19.656;2023-02-15T01:37:55;51.70;2227.20
56123;DHT22;42426;46.104;19.656;2023-02-15T01:40:21;51.70;2227.20
56123;DHT22;42426;46.104;19.656;2023-02-15T01:42:54;51.70;2227.20
56123;DHT22;42426;46.104;19.656;2023-02-15T01:45:29;51.60;2227.20
56123;DHT22;42426;46.104;19.656;2023-02-15T01:50:36;51.60;2227.20
56123;DHT22;42426;46.104;19.656;2023-02-15T01:53:17;51.60;2227.20
56123;DHT22;42426;46.104;19.656;2023-02-15T01:55:59;51.60;2227.20
56123;DHT22;42426;46.104;19.656;2023-02-15T01:58:27;51.60;2227.20
56123;DHT22;42426;46.104;19.656;2023-02-15T02:00:56;51.60;2227.20
56123;DHT22;42426;46.104;19.656;2023-02-15T02:03:35;51.50;2227.20
56123;DHT22;42426;46.104;19.656;2023-02-15T02:06:01;51.60;2227.20
56123;DHT22;42426;46.104;19.656;2023-02-15T02:08:27;51.50;2227.20
56123;DHT22;42426;46.104;19.656;2023-02-15T02:10:53;51.50;2227.20
56123;DHT22;42426;46.104;19.656;2023-02-15T02:13:19;51.50;2227.20
56123;DHT22;42426;46.104;19.656;2023-02-15T02:15:55;51.40;2227.20
56123;DHT22;42426;46.104;19.656;2023-02-15T02:18:38;51.40;2227.20
56123;DHT22;42426;46.104;19.656;2023-02-15T02:29:37;51.30;2227.20
56123;DHT22;42426;46.104;19.656;2023-02-15T02:37:53;51.30;2227.20
56123;DHT22;42426;46.104;19.656;2023-02-15T02:43:35;51.30;2227.20
56123;DHT22;42426;46.104;19.656;2023-02-15T02:46:15;51.30;2227.20
56123;DHT22;42426;46.104;19.656;2023-02-15T02:48:44;51.30;2227.20
56123;DHT22;42426;46.104;19.656;2023-02-15T02:51:10;51.30;2227.20
56123;DHT22;42426;46.104;19.656;2023-02-15T02:53:36;51.30;2227.20
56123;DHT22;42426;46.104;19.656;2023-02-15T02:56:24;51.30;2227.20
56123;DHT22;42426;46.104;19.656;2023-02-15T02:59:10;51.30;2227.20
56123;DHT22;42426;46.104;19.656;2023-02-15T03:04:11;51.20;2227.20
56123;DHT22;42426;46.104;19.656;2023-02-15T03:06:41;51.20;2227.20
56123;DHT22;42426;46.104;19.656;2023-02-15T03:09:31;51.20;2227.20
56123;DHT22;42426;46.104;19.656;2023-02-15T03:14:36;26.50;2201.60
56123;DHT22;42426;46.104;19.656;2023-02-15T03:17:04;26.50;2201.60
56123;DHT22;42426;46.104;19.656;2023-02-15T03:19:32;26.50;2201.60
56123;DHT22;42426;46.104;19.656;2023-02-15T03:22:18;26.50;2201.60
56123;DHT22;42426;46.104;19.656;2023-02-15T03:24:57;26.50;2201.60
56123;DHT22;42426;46.104;19.656;2023-02-15T03:27:38;26.40;2201.60
56123;DHT22;42426;46.104;19.656;2023-02-15T03:30:06;26.40;2201.60
56123;DHT22;42426;46.104;19.656;2023-02-15T03:32:34;26.50;2201.60
56123;DHT22;42426;46.104;19.656;2023-02-15T03:35:03;26.40;2201.60
56123;DHT22;42426;46.104;19.656;2023-02-15T03:37:36;26.40;2201.60
56123;DHT22;42426;46.104;19.656;2023-02-15T03:43:12;26.40;2201.60
56123;DHT22;42426;46.104;19.656;2023-02-15T03:45:44;26.40;2201.60
56123;DHT22;42426;46.104;19.656;2023-02-15T03:48:43;26.40;2201.60
56123;DHT22;42426;46.104;19.656;2023-02-15T03:51:16;26.40;2201.60
56123;DHT22;42426;46.104;19.656;2023-02-15T03:56:27;26.30;2201.60
56123;DHT22;42426;46.104;19.656;2023-02-15T03:58:53;26.30;2201.60
56123;DHT22;42426;46.104;19.656;2023-02-15T04:01:40;26.30;2201.60
56123;DHT22;42426;46.104;19.656;2023-02-15T04:04:32;26.40;2201.60
56123;DHT22;42426;46.104;19.656;2023-02-15T04:06:58;26.40;2201.60
56123;DHT22;42426;46.104;19.656;2023-02-15T04:09:24;26.30;2201.60
56123;DHT22;42426;46.104;19.656;2023-02-15T04:12:08;26.30;2201.60
56123;DHT22;42426;46.104;19.656;2023-02-15T04:14:33;26.30;2201.60
56123;DHT22;42426;46.104;19.656;2023-02-15T04:17:17;26.30;2201.60
56123;DHT22;42426;46.104;19.656;2023-02-15T04:19:43;26.30;2201.60
56123;DHT22;42426;46.104;19.656;2023-02-15T04:22:28;26.30;2201.60
56123;DHT22;42426;46.104;19.656;2023-02-15T04:25:12;26.20;2201.60
56123;DHT22;42426;46.104;19.656;2023-02-15T04:27:40;26.20;2201.60
56123;DHT22;42426;46.104;19.656;2023-02-15T04:30:07;26.20;2201.60
56123;DHT22;42426;46.104;19.656;2023-02-15T04:32:34;26.20;2201.60
56123;DHT22;42426;46.104;19.656;2023-02-15T04:35:00;26.20;2201.60
56123;DHT22;42426;46.104;19.656;2023-02-15T04:37:26;26.20;2201.60
56123;DHT22;42426;46.104;19.656;2023-02-15T04:39:51;26.30;2201.60
56123;DHT22;42426;46.104;19.656;2023-02-15T04:42:17;26.20;2201.60
56123;DHT22;42426;46.104;19.656;2023-02-15T04:44:43;26.20;2201.60
56123;DHT22;42426;46.104;19.656;2023-02-15T04:47:11;26.20;2201.60
56123;DHT22;42426;46.104;19.656;2023-02-15T04:49:36;26.30;2201.60
56123;DHT22;42426;46.104;19.656;2023-02-15T04:52:03;26.20;2201.60
56123;DHT22;42426;46.104;19.656;2023-02-15T04:54:29;26.20;2201.60
56123;DHT22;42426;46.104;19.656;2023-02-15T04:56:55;26.20;2201.60
56123;DHT22;42426;46.104;19.656;2023-02-15T04:59:20;26.20;2201.60
56123;DHT22;42426;46.104;19.656;2023-02-15T05:01:46;26.20;2201.60
56123;DHT22;42426;46.104;19.656;2023-02-15T05:04:11;26.20;2201.60
56123;DHT22;42426;46.104;19.656;2023-02-15T05:06:37;26.20;2201.60
56123;DHT22;42426;46.104;19.656;2023-02-15T05:09:03;26.20;2201.60
56123;DHT22;42426;46.104;19.656;2023-02-15T05:11:28;26.20;2201.60
56123;DHT22;42426;46.104;19.656;2023-02-15T05:13:54;26.10;2201.60
56123;DHT22;42426;46.104;19.656;2023-02-15T05:16:22;26.10;2201.60
56123;DHT22;42426;46.104;19.656;2023-02-15T05:18:48;26.10;2201.60
56123;DHT22;42426;46.104;19.656;2023-02-15T05:21:13;26.10;2201.60
56123;DHT22;42426;46.104;19.656;2023-02-15T05:23:42;26.10;2201.60
56123;DHT22;42426;46.104;19.656;2023-02-15T05:26:11;26.10;2201.60
56123;DHT22;42426;46.104;19.656;2023-02-15T05:28:56;26.10;2201.60
56123;DHT22;42426;46.104;19.656;2023-02-15T05:31:21;26.00;2201.60
56123;DHT22;42426;46.104;19.656;2023-02-15T05:33:47;26.10;2201.60
56123;DHT22;42426;46.104;19.656;2023-02-15T05:36:13;26.00;2201.60
56123;DHT22;42426;46.104;19.656;2023-02-15T05:38:39;26.10;2201.60
56123;DHT22;42426;46.104;19.656;2023-02-15T05:41:06;26.10;2201.60
56123;DHT22;42426;46.104;19.656;2023-02-15T05:43:32;26.10;2201.60
56123;DHT22;42426;46.104;19.656;2023-02-15T05:45:58;26.10;2201.60
56123;DHT22;42426;46.104;19.656;2023-02-15T05:48:25;26.10;2201.60
56123;DHT22;42426;46.104;19.656;2023-02-15T05:53:26;26.00;2201.60
56123;DHT22;42426;46.104;19.656;2023-02-15T05:55:51;26.00;2201.60
56123;DHT22;42426;46.104;19.656;2023-02-15T05:58:17;26.10;2201.60
56123;DHT22;42426;46.104;19.656;2023-02-15T06:00:43;26.10;2201.60
56123;DHT22;42426;46.104;19.656;2023-02-15T06:03:09;26.10;2201.60
56123;DHT22;42426;46.104;19.656;2023-02-15T06:05:34;26.10;2201.60
56123;DHT22;42426;46.104;19.656;2023-02-15T06:08:00;26.00;2201.60
56123;DHT22;42426;46.104;19.656;2023-02-15T06:10:26;26.00;2201.60
56123;DHT22;42426;46.104;19.656;2023-02-15T06:12:51;26.00;2201.60
56123;DHT22;42426;46.104;19.656;2023-02-15T06:15:17;26.00;2201.60
56123;DHT22;42426;46.104;19.656;2023-02-15T06:17:43;26.10;2201.60
56123;DHT22;42426;46.104;19.656;2023-02-15T06:20:09;26.10;2201.60
56123;DHT22;42426;46.104;19.656;2023-02-15T06:22:35;26.10;2201.60
56123;DHT22;42426;46.104;19.656;2023-02-15T06:25:01;26.10;2201.60
56123;DHT22;42426;46.104;19.656;2023-02-15T06:27:26;26.10;2201.60
56123;DHT22;42426;46.104;19.656;2023-02-15T06:29:52;26.10;2201.60
56123;DHT22;42426;46.104;19.656;2023-02-15T06:32:18;26.10;2201.60
56123;DHT22;42426;46.104;19.656;2023-02-15T06:34:43;26.20;2201.60
56123;DHT22;42426;46.104;19.656;2023-02-15T06:37:10;26.10;2201.60
56123;DHT22;42426;46.104;19.656;2023-02-15T06:39:36;26.10;2201.60
56123;DHT22;42426;46.104;19.656;2023-02-15T06:42:03;26.10;2201.60
56123;DHT22;42426;46.104;19.656;2023-02-15T06:44:30;26.10;2201.60
56123;DHT22;42426;46.104;19.656;2023-02-15T06:46:56;26.20;2201.60
56123;DHT22;42426;46.104;19.656;2023-02-15T06:49:22;26.20;2201.60
56123;DHT22;42426;46.104;19.656;2023-02-15T06:51:47;26.30;2201.60
56123;DHT22;42426;46.104;19.656;2023-02-15T06:54:13;26.30;2201.60
56123;DHT22;42426;46.104;19.656;2023-02-15T06:56:39;26.30;2201.60
56123;DHT22;42426;46.104;19.656;2023-02-15T06:59:04;26.30;2201.60
56123;DHT22;42426;46.104;19.656;2023-02-15T07:01:30;26.40;2201.60
56123;DHT22;42426;46.104;19.656;2023-02-15T07:03:56;26.50;2201.60
56123;DHT22;42426;46.104;19.656;2023-02-15T07:06:21;26.50;2201.60
56123;DHT22;42426;46.104;19.656;2023-02-15T07:08:47;51.20;2227.20
56123;DHT22;42426;46.104;19.656;2023-02-15T07:11:13;51.20;2227.20
56123;DHT22;42426;46.104;19.656;2023-02-15T07:13:57;51.30;2227.20
56123;DHT22;42426;46.104;19.656;2023-02-15T07:16:23;51.30;2227.20
56123;DHT22;42426;46.104;19.656;2023-02-15T07:18:48;51.40;2227.20
56123;DHT22;42426;46.104;19.656;2023-02-15T07:21:14;51.40;2227.20
56123;DHT22;42426;46.104;19.656;2023-02-15T07:23:40;51.50;2227.20
56123;DHT22;42426;46.104;19.656;2023-02-15T07:26:06;51.50;2227.20
56123;DHT22;42426;46.104;19.656;2023-02-15T07:28:33;51.60;2227.20
56123;DHT22;42426;46.104;19.656;2023-02-15T07:31:02;51.60;2227.20
56123;DHT22;42426;46.104;19.656;2023-02-15T07:33:31;51.70;2227.20
56123;DHT22;42426;46.104;19.656;2023-02-15T07:35:58;51.70;2227.20
56123;DHT22;42426;46.104;19.656;2023-02-15T07:38:36;51.80;2227.20
56123;DHT22;42426;46.104;19.656;2023-02-15T07:41:03;51.80;2227.20
56123;DHT22;42426;46.104;19.656;2023-02-15T07:43:32;51.90;2227.20
56123;DHT22;42426;46.104;19.656;2023-02-15T07:46:02;52.00;2227.20
56123;DHT22;42426;46.104;19.656;2023-02-15T07:48:28;52.00;2227.20
56123;DHT22;42426;46.104;19.656;2023-02-15T07:50:56;52.10;2227.20
56123;DHT22;42426;46.104;19.656;2023-02-15T07:53:27;76.80;2227.20
56123;DHT22;42426;46.104;19.656;2023-02-15T07:56:08;77.00;2227.20
56123;DHT22;42426;46.104;19.656;2023-02-15T07:58:34;76.90;2227.20
56123;DHT22;42426;46.104;19.656;2023-02-15T08:01:31;77.10;2227.20
56123;DHT22;42426;46.104;19.656;2023-02-15T08:03:57;77.10;2227.20
56123;DHT22;42426;46.104;19.656;2023-02-15T08:06:26;77.10;2227.20
56123;DHT22;42426;46.104;19.656;2023-02-15T08:08:51;77.20;2227.20
56123;DHT22;42426;46.104;19.656;2023-02-15T08:11:23;77.30;2227.20
56123;DHT22;42426;46.104;19.656;2023-02-15T08:16:58;77.50;2227.20
56123;DHT22;42426;46.104;19.656;2023-02-15T08:19:29;77.50;2227.20
56123;DHT22;42426;46.104;19.656;2023-02-15T08:21:58;77.60;2227.20
56123;DHT22;42426;46.104;19.656;2023-02-15T08:24:26;77.70;2227.20
56123;DHT22;42426;46.104;19.656;2023-02-15T08:26:54;102.40;2227.20
56123;DHT22;42426;46.104;19.656;2023-02-15T08:29:24;102.50;2227.20
56123;DHT22;42426;46.104;19.656;2023-02-15T08:31:56;102.50;2227.20
56123;DHT22;42426;46.104;19.656;2023-02-15T08:34:24;102.60;2227.20
56123;DHT22;42426;46.104;19.656;2023-02-15T08:36:49;102.70;2227.20
56123;DHT22;42426;46.104;19.656;2023-02-15T08:39:16;102.90;2227.20
56123;DHT22;42426;46.104;19.656;2023-02-15T08:41:44;103.00;2227.20
56123;DHT22;42426;46.104;19.656;2023-02-15T08:44:10;103.10;2227.20
56123;DHT22;42426;46.104;19.656;2023-02-15T08:46:38;103.20;2227.20
56123;DHT22;42426;46.104;19.656;2023-02-15T08:49:05;103.30;2227.20
56123;DHT22;42426;46.104;19.656;2023-02-15T08:51:35;128.00;2252.80
56123;DHT22;42426;46.104;19.656;2023-02-15T08:54:04;128.10;2252.80
56123;DHT22;42426;46.104;19.656;2023-02-15T08:56:34;128.10;2252.80
56123;DHT22;42426;46.104;19.656;2023-02-15T08:59:01;128.30;2252.80
56123;DHT22;42426;46.104;19.656;2023-02-15T09:01:29;128.30;2252.80
56123;DHT22;42426;46.104;19.656;2023-02-15T09:03:57;128.40;2252.80
56123;DHT22;42426;46.104;19.656;2023-02-15T09:06:23;128.50;2252.80
56123;DHT22;42426;46.104;19.656;2023-02-15T09:08:50;128.50;2252.80
56123;DHT22;42426;46.104;19.656;2023-02-15T09:11:25;128.60;2252.80
56123;DHT22;42426;46.104;19.656;2023-02-15T09:13:57;128.70;2252.80
56123;DHT22;42426;46.104;19.656;2023-02-15T09:16:25;128.80;2252.80
56123;DHT22;42426;46.104;19.656;2023-02-15T09:18:52;128.80;2252.80
56123;DHT22;42426;46.104;19.656;2023-02-15T09:21:20;128.90;2252.80
56123;DHT22;42426;46.104;19.656;2023-02-15T09:23:49;153.60;2252.80
56123;DHT22;42426;46.104;19.656;2023-02-15T09:26:18;153.60;2252.80
56123;DHT22;42426;46.104;19.656;2023-02-15T09:28:44;153.80;2252.80
56123;DHT22;42426;46.104;19.656;2023-02-15T09:31:18;153.80;2252.80
56123;DHT22;42426;46.104;19.656;2023-02-15T09:33:46;153.90;2252.80
56123;DHT22;42426;46.104;19.656;2023-02-15T09:38:48;154.10;2252.80
56123;DHT22;42426;46.104;19.656;2023-02-15T09:53:15;154.30;2252.80
56123;DHT22;42426;46.104;19.656;2023-02-15T09:56:00;154.30;2252.80
56123;DHT22;42426;46.104;19.656;2023-02-15T09:59:02;154.40;2252.80
56123;DHT22;42426;46.104;19.656;2023-02-15T10:09:55;154.50;2252.80
56123;DHT22;42426;46.104;19.656;2023-02-15T10:12:36;179.20;2252.80
56123;DHT22;42426;46.104;19.656;2023-02-15T10:26:21;179.50;2252.80
56123;DHT22;42426;46.104;19.656;2023-02-15T10:29:04;179.50;2252.80
56123;DHT22;42426;46.104;19.656;2023-02-15T10:31:49;179.60;2252.80
56123;DHT22;42426;46.104;19.656;2023-02-15T10:34:38;179.60;2252.80
56123;DHT22;42426;46.104;19.656;2023-02-15T10:37:24;179.60;2252.80
56123;DHT22;42426;46.104;19.656;2023-02-15T10:40:08;179.70;2252.80
56123;DHT22;42426;46.104;19.656;2023-02-15T10:58:42;180.00;2176.00
56123;DHT22;42426;46.104;19.656;2023-02-15T11:06:52;180.10;2201.60
56123;DHT22;42426;46.104;19.656;2023-02-15T11:09:21;180.10;2201.60
56123;DHT22;42426;46.104;19.656;2023-02-15T11:11:51;204.80;2150.40
56123;DHT22;42426;46.104;19.656;2023-02-15T11:14:27;204.90;2176.00
56123;DHT22;42426;46.104;19.656;2023-02-15T11:17:12;205.00;2176.00
56123;DHT22;42426;46.104;19.656;2023-02-15T11:20:05;205.10;2176.00
56123;DHT22;42426;46.104;19.656;2023-02-15T11:22:33;205.10;2150.40
56123;DHT22;42426;46.104;19.656;2023-02-15T11:25:00;205.20;2150.40
56123;DHT22;42426;46.104;19.656;2023-02-15T11:27:31;205.20;2124.80
56123;DHT22;42426;46.104;19.656;2023-02-15T11:30:03;205.30;2099.20
56123;DHT22;42426;46.104;19.656;2023-02-15T11:32:35;205.20;2099.20
56123;DHT22;42426;46.104;19.656;2023-02-15T11:37:45;205.20;2124.80
56123;DHT22;42426;46.104;19.656;2023-02-15T11:40:27;205.20;2099.20
56123;DHT22;42426;46.104;19.656;2023-02-15T11:42:56;205.30;2073.60
56123;DHT22;42426;46.104;19.656;2023-02-15T11:45:31;205.30;2073.60
56123;DHT22;42426;46.104;19.656;2023-02-15T11:47:58;205.40;2073.60
56123;DHT22;42426;46.104;19.656;2023-02-15T11:50:27;205.40;2048.00
56123;DHT22;42426;46.104;19.656;2023-02-15T11:53:03;205.50;2048.00
56123;DHT22;42426;46.104;19.656;2023-02-15T11:55:33;205.60;2048.00
56123;DHT22;42426;46.104;19.656;2023-02-15T12:00:38;205.70;2048.00
56123;DHT22;42426;46.104;19.656;2023-02-15T12:06:04;205.70;1996.80
56123;DHT22;42426;46.104;19.656;2023-02-15T12:08:45;230.40;2022.40
56123;DHT22;42426;46.104;19.656;2023-02-15T12:11:25;205.70;2022.40
56123;DHT22;42426;46.104;19.656;2023-02-15T12:16:20;230.40;2022.40
56123;DHT22;42426;46.104;19.656;2023-02-15T12:18:47;230.40;2022.40
56123;DHT22;42426;46.104;19.656;2023-02-15T12:21:29;205.70;2048.00
56123;DHT22;42426;46.104;19.656;2023-02-15T12:24:17;205.70;2048.00
56123;DHT22;42426;46.104;19.656;2023-02-15T12:26:44;205.70;2048.00
56123;DHT22;42426;46.104;19.656;2023-02-15T12:29:16;230.40;2022.40
56123;DHT22;42426;46.104;19.656;2023-02-15T12:31:48;230.50;1996.80
56123;DHT22;42426;46.104;19.656;2023-02-15T12:34:25;230.60;1996.80
56123;DHT22;42426;46.104;19.656;2023-02-15T12:36:54;230.60;1996.80
56123;DHT22;42426;46.104;19.656;2023-02-15T12:39:32;230.70;1996.80
56123;DHT22;42426;46.104;19.656;2023-02-15T12:42:02;230.70;1996.80
56123;DHT22;42426;46.104;19.656;2023-02-15T12:44:31;230.70;1996.80
56123;DHT22;42426;46.104;19.656;2023-02-15T12:47:02;230.80;1971.20
56123;DHT22;42426;46.104;19.656;2023-02-15T12:52:00;230.90;1945.60
56123;DHT22;42426;46.104;19.656;2023-02-15T12:54:40;230.90;1945.60
56123;DHT22;42426;46.104;19.656;2023-02-15T12:59:57;230.90;1971.20
56123;DHT22;42426;46.104;19.656;2023-02-15T13:04:51;230.90;1996.80
56123;DHT22;42426;46.104;19.656;2023-02-15T13:07:18;231.00;1971.20
56123;DHT22;42426;46.104;19.656;2023-02-15T13:09:47;231.10;1996.80
56123;DHT22;42426;46.104;19.656;2023-02-15T13:12:26;231.20;1920.00
56123;DHT22;42426;46.104;19.656;2023-02-15T13:14:54;231.20;1894.40
56123;DHT22;42426;46.104;19.656;2023-02-15T13:17:46;231.20;1868.80
56123;DHT22;42426;46.104;19.656;2023-02-15T13:20:20;231.20;1894.40
56123;DHT22;42426;46.104;19.656;2023-02-15T13:22:50;231.30;1894.40
56123;DHT22;42426;46.104;19.656;2023-02-15T13:25:30;231.30;1920.00
56123;DHT22;42426;46.104;19.656;2023-02-15T13:28:03;231.30;1920.00
56123;DHT22;42426;46.104;19.656;2023-02-15T13:30:44;231.30;1945.60
56123;DHT22;42426;46.104;19.656;2023-02-15T13:35:51;256.00;1945.60
56123;DHT22;42426;46.104;19.656;2023-02-15T13:47:24;256.10;1920.00
56123;DHT22;42426;46.104;19.656;2023-02-15T13:52:46;256.20;1868.80
56123;DHT22;42426;46.104;19.656;2023-02-15T13:55:27;256.20;1945.60
56123;DHT22;42426;46.104;19.656;2023-02-15T14:20:19;256.40;1920.00
56123;DHT22;42426;46.104;19.656;2023-02-15T14:26:23;256.40;1868.80
56123;DHT22;42426;46.104;19.656;2023-02-15T14:28:58;256.40;1945.60
56123;DHT22;42426;46.104;19.656;2023-02-15T14:31:32;256.40;1971.20
56123;DHT22;42426;46.104;19.656;2023-02-15T14:33:59;256.40;1971.20
56123;DHT22;42426;46.104;19.656;2023-02-15T14:36:27;256.50;1868.80
56123;DHT22;42426;46.104;19.656;2023-02-15T14:41:49;256.50;1894.40
56123;DHT22;42426;46.104;19.656;2023-02-15T14:49:32;256.50;1843.20
56123;DHT22;42426;46.104;19.656;2023-02-15T14:52:07;256.50;1920.00
56123;DHT22;42426;46.104;19.656;2023-02-15T15:02:13;256.50;1920.00
56123;DHT22;42426;46.104;19.656;2023-02-15T15:05:01;256.60;1868.80
56123;DHT22;42426;46.104;19.656;2023-02-15T15:12:44;256.50;1894.40
56123;DHT22;42426;46.104;19.656;2023-02-15T15:18:10;256.50;1945.60
56123;DHT22;42426;46.104;19.656;2023-02-15T15:25:49;256.30;1920.00
56123;DHT22;42426;46.104;19.656;2023-02-15T15:31:47;256.30;1920.00
56123;DHT22;42426;46.104;19.656;2023-02-15T15:42:32;256.00;1894.40
56123;DHT22;42426;46.104;19.656;2023-02-15T15:50:42;231.00;1971.20
56123;DHT22;42426;46.104;19.656;2023-02-15T15:53:20;230.90;2022.40
56123;DHT22;42426;46.104;19.656;2023-02-15T15:55:47;230.90;2022.40
56123;DHT22;42426;46.104;19.656;2023-02-15T15:58:17;230.80;2099.20
56123;DHT22;42426;46.104;19.656;2023-02-15T16:00:51;230.70;2099.20
56123;DHT22;42426;46.104;19.656;2023-02-15T16:03:26;230.60;2099.20
56123;DHT22;42426;46.104;19.656;2023-02-15T16:05:53;230.50;2124.80
56123;DHT22;42426;46.104;19.656;2023-02-15T16:08:38;230.40;2124.80
56123;DHT22;42426;46.104;19.656;2023-02-15T16:11:21;205.70;2150.40
56123;DHT22;42426;46.104;19.656;2023-02-15T16:13:48;205.70;2150.40
56123;DHT22;42426;46.104;19.656;2023-02-15T16:16:23;205.60;2150.40
56123;DHT22;42426;46.104;19.656;2023-02-15T16:18:50;205.60;2176.00
56123;DHT22;42426;46.104;19.656;2023-02-15T16:21:22;205.50;2176.00
56123;DHT22;42426;46.104;19.656;2023-02-15T16:26:44;205.30;2176.00
56123;DHT22;42426;46.104;19.656;2023-02-15T16:29:26;205.30;2176.00
56123;DHT22;42426;46.104;19.656;2023-02-15T16:32:19;205.20;2201.60
56123;DHT22;42426;46.104;19.656;2023-02-15T16:35:00;205.10;2201.60
56123;DHT22;42426;46.104;19.656;2023-02-15T16:37:32;205.00;2201.60
56123;DHT22;42426;46.104;19.656;2023-02-15T16:39:58;204.90;2201.60
56123;DHT22;42426;46.104;19.656;2023-02-15T16:42:24;204.80;2227.20
56123;DHT22;42426;46.104;19.656;2023-02-15T16:45:14;180.10;2227.20
56123;DHT22;42426;46.104;19.656;2023-02-15T16:47:44;180.10;2227.20
56123;DHT22;42426;46.104;19.656;2023-02-15T16:50:28;180.00;2227.20
56123;DHT22;42426;46.104;19.656;2023-02-15T16:52:56;180.00;2252.80
56123;DHT22;42426;46.104;19.656;2023-02-15T16:55:27;179.90;2252.80
56123;DHT22;42426;46.104;19.656;2023-02-15T16:58:00;179.80;2252.80
56123;DHT22;42426;46.104;19.656;2023-02-15T17:00:31;179.80;2252.80
56123;DHT22;42426;46.104;19.656;2023-02-15T17:03:00;179.70;2252.80
56123;DHT22;42426;46.104;19.656;2023-02-15T17:05:53;179.70;2252.80
56123;DHT22;42426;46.104;19.656;2023-02-15T17:08:31;179.60;2252.80
56123;DHT22;42426;46.104;19.656;2023-02-15T17:13:38;179.50;2252.80
56123;DHT22;42426;46.104;19.656;2023-02-15T17:21:09;179.40;2252.80
56123;DHT22;42426;46.104;19.656;2023-02-15T17:23:41;179.30;2252.80
56123;DHT22;42426;46.104;19.656;2023-02-15T17:26:25;179.30;2252.80
56123;DHT22;42426;46.104;19.656;2023-02-15T17:28:58;179.20;2252.80
56123;DHT22;42426;46.104;19.656;2023-02-15T17:31:26;154.50;2252.80
56123;DHT22;42426;46.104;19.656;2023-02-15T17:33:55;154.50;2252.80
56123;DHT22;42426;46.104;19.656;2023-02-15T17:36:24;154.40;2252.80
56123;DHT22;42426;46.104;19.656;2023-02-15T17:39:18;154.40;2252.80
56123;DHT22;42426;46.104;19.656;2023-02-15T17:41:44;154.30;2252.80
56123;DHT22;42426;46.104;19.656;2023-02-15T17:44:12;154.20;2252.80
56123;DHT22;42426;46.104;19.656;2023-02-15T17:46:41;154.20;2252.80
56123;DHT22;42426;46.104;19.656;2023-02-15T17:49:14;154.10;2252.80
56123;DHT22;42426;46.104;19.656;2023-02-15T17:51:43;154.10;2252.80
56123;DHT22;42426;46.104;19.656;2023-02-15T17:54:09;154.10;2252.80
56123;DHT22;42426;46.104;19.656;2023-02-15T17:56:54;154.10;2252.80
56123;DHT22;42426;46.104;19.656;2023-02-15T17:59:19;154.00;2252.80
56123;DHT22;42426;46.104;19.656;2023-02-15T18:01:48;153.90;2252.80
56123;DHT22;42426;46.104;19.656;2023-02-15T18:04:33;153.90;2252.80
56123;DHT22;42426;46.104;19.656;2023-02-15T18:07:18;153.80;2252.80
56123;DHT22;42426;46.104;19.656;2023-02-15T18:10:12;153.80;2252.80
56123;DHT22;42426;46.104;19.656;2023-02-15T18:12:57;153.70;2252.80
56123;DHT22;42426;46.104;19.656;2023-02-15T18:15:22;153.70;2252.80
56123;DHT22;42426;46.104;19.656;2023-02-15T18:17:49;153.60;2252.80
56123;DHT22;42426;46.104;19.656;2023-02-15T18:20:23;153.60;2252.80
56123;DHT22;42426;46.104;19.656;2023-02-15T18:22:50;128.90;2252.80
56123;DHT22;42426;46.104;19.656;2023-02-15T18:25:19;128.90;2252.80
56123;DHT22;42426;46.104;19.656;2023-02-15T18:27:45;128.90;2252.80
56123;DHT22;42426;46.104;19.656;2023-02-15T18:30:19;128.90;2252.80